Time;durP1;ratioP1;P1;durP2;ratioP2;P2;SDS_P1;SDS_P2;PMS_P1;PMS_P2;Temp;Humidity;BMP_temperature;BMP_pressure;BME280_temperature;BME280_humidity;BME280_pressure;Samples;Min_cycle;Max_cycle;Signal;HPM_P1;HPM_P2
2023/12/06 00:00:09;;;;;;;34.45;16.23;;;;;;;;;;6156393;23;20025;-90
2023/12/06 00:02:36;;;;;;;30.67;15.77;;;;;;;;;;6155771;23;20260;-90
2023/12/06 00:05:03;;;;;;;21.38;13.73;;;;;;;;;;6181943;23;20056;-89
2023/12/06 00:07:31;;;;;;;29.63;15.32;;;;;;;;;;6182139;23;20060;-90
2023/12/06 00:09:59;;;;;;;34.13;17.27;;;;;;;;;;6181905;23;20056;-90
2023/12/06 00:12:26;;;;;;;15.32;11.23;;;;;;;;;;6156592;22;20075;-90
2023/12/06 00:14:54;;;;;;;12.50;9.10;;;;;;;;;;6155949;23;20036;-90
2023/12/06 00:17:21;;;;;;;10.63;9.30;;;;;;;;;;6155748;23;20025;-90
2023/12/06 00:19:48;;;;;;;14.55;8.85;;;;;;;;;;6181581;23;20024;-91
2023/12/06 00:22:16;;;;;;;12.50;9.38;;;;;;;;;;6181362;23;20046;-90
2023/12/06 00:24:43;;;;;;;9.35;8.00;;;;;;;;;;6155887;23;20100;-89
2023/12/06 00:27:10;;;;;;;7.95;7.07;;;;;;;;;;6156253;23;20047;-90
2023/12/06 00:29:37;;;;;;;7.45;6.20;;;;;;;;;;6155537;23;20446;-90
2023/12/06 00:32:05;;;;;;;7.20;6.15;;;;;;;;;;6181392;23;20056;-90
2023/12/06 00:34:32;;;;;;;8.18;7.05;;;;;;;;;;6155946;23;20086;-90
2023/12/06 00:36:59;;;;;;;6.43;5.90;;;;;;;;;;6155911;23;20032;-90
2023/12/06 00:39:27;;;;;;;6.40;5.80;;;;;;;;;;6181965;23;20017;-90
2023/12/06 00:41:54;;;;;;;8.95;6.47;;;;;;;;;;6181869;23;20051;-90
2023/12/06 00:44:21;;;;;;;6.78;6.18;;;;;;;;;;6155848;23;20025;-90
2023/12/06 00:46:49;;;;;;;7.50;6.75;;;;;;;;;;6181712;23;20086;-89
2023/12/06 00:49:19;;;;;;;18.50;10.15;;;;;;;;;;6156148;23;20021;-90
2023/12/06 00:51:46;;;;;;;15.02;8.82;;;;;;;;;;6155952;23;20056;-90
2023/12/06 00:54:14;;;;;;;10.43;7.70;;;;;;;;;;6155644;23;20017;-90
2023/12/06 00:56:41;;;;;;;17.77;9.60;;;;;;;;;;6155828;23;20384;-90
2023/12/06 00:59:08;;;;;;;12.10;7.57;;;;;;;;;;6181247;23;20071;-90
2023/12/06 01:01:35;;;;;;;14.07;8.15;;;;;;;;;;6155634;23;20059;-90
2023/12/06 01:04:03;;;;;;;22.63;11.52;;;;;;;;;;6156250;23;20028;-89
2023/12/06 01:06:30;;;;;;;19.63;10.40;;;;;;;;;;6156087;23;20033;-89
2023/12/06 01:08:58;;;;;;;12.30;8.45;;;;;;;;;;6156263;23;20450;-90
2023/12/06 01:11:25;;;;;;;14.82;9.23;;;;;;;;;;6181975;23;20354;-90
2023/12/06 01:13:52;;;;;;;19.10;10.07;;;;;;;;;;6156704;23;20029;-90
2023/12/06 01:16:20;;;;;;;13.23;8.25;;;;;;;;;;6156467;23;20025;-89
2023/12/06 01:18:47;;;;;;;10.75;8.25;;;;;;;;;;6156948;23;20078;-90
2023/12/06 01:21:15;;;;;;;9.30;7.40;;;;;;;;;;6156418;23;20078;-90
2023/12/06 01:23:42;;;;;;;8.52;7.13;;;;;;;;;;6156506;23;20075;-90
2023/12/06 01:26:10;;;;;;;8.93;7.22;;;;;;;;;;6180872;23;20025;-90
2023/12/06 01:28:41;;;;;;;8.43;6.75;;;;;;;;;;6156594;23;20466;-90
2023/12/06 01:31:08;;;;;;;6.60;5.90;;;;;;;;;;6156170;23;20074;-90
2023/12/06 01:33:35;;;;;;;6.63;6.00;;;;;;;;;;6156097;23;20017;-90
2023/12/06 01:36:03;;;;;;;7.70;6.90;;;;;;;;;;6181168;23;20108;-90
2023/12/06 01:38:30;;;;;;;7.53;6.78;;;;;;;;;;6155451;23;20378;-90
2023/12/06 01:40:57;;;;;;;12.43;7.32;;;;;;;;;;6181252;23;20094;-90
2023/12/06 01:43:24;;;;;;;11.25;6.95;;;;;;;;;;6156199;23;20025;-90
2023/12/06 01:45:52;;;;;;;10.00;7.30;;;;;;;;;;6181742;23;20023;-90
2023/12/06 01:48:19;;;;;;;7.28;6.38;;;;;;;;;;6156201;23;20025;-90
2023/12/06 01:50:47;;;;;;;8.75;6.75;;;;;;;;;;6155897;23;20016;-90
2023/12/06 01:53:15;;;;;;;8.13;6.72;;;;;;;;;;6155510;23;20045;-90
2023/12/06 01:55:42;;;;;;;9.10;6.90;;;;;;;;;;6181563;23;20025;-90
2023/12/06 01:58:09;;;;;;;11.38;7.93;;;;;;;;;;6156251;23;20384;-90
2023/12/06 02:00:36;;;;;;;17.15;9.30;;;;;;;;;;6181442;23;20353;-91
2023/12/06 02:03:05;;;;;;;15.75;8.25;;;;;;;;;;6155359;23;20021;-91
2023/12/06 02:05:32;;;;;;;12.07;7.75;;;;;;;;;;6155467;23;20078;-91
2023/12/06 02:08:02;;;;;;;11.02;7.15;;;;;;;;;;6156042;23;20025;-90
2023/12/06 02:10:29;;;;;;;10.20;7.78;;;;;;;;;;6155926;23;20070;-91
2023/12/06 02:12:56;;;;;;;9.55;7.38;;;;;;;;;;6155428;23;20030;-91
2023/12/06 02:15:24;;;;;;;13.73;8.48;;;;;;;;;;6155060;23;20013;-91
2023/12/06 02:17:52;;;;;;;12.02;7.97;;;;;;;;;;6155401;23;20527;-90
2023/12/06 02:20:20;;;;;;;11.95;8.38;;;;;;;;;;6155253;23;20465;-90
2023/12/06 02:22:48;;;;;;;17.25;8.60;;;;;;;;;;6155796;23;20021;-91
2023/12/06 02:25:16;;;;;;;16.98;8.98;;;;;;;;;;6181317;23;20018;-91
2023/12/06 02:27:44;;;;;;;12.27;7.47;;;;;;;;;;6155583;23;20097;-91
2023/12/06 02:30:12;;;;;;;8.13;6.30;;;;;;;;;;6181554;23;20017;-90
2023/12/06 02:32:39;;;;;;;12.48;7.57;;;;;;;;;;6181542;23;20025;-91
2023/12/06 02:35:11;;;;;;;10.48;7.07;;;;;;;;;;6181212;23;20335;-91
2023/12/06 02:37:40;;;;;;;8.80;6.65;;;;;;;;;;6156036;23;20052;-91
2023/12/06 02:40:09;;;;;;;8.68;6.47;;;;;;;;;;6181240;23;20370;-91
2023/12/06 02:42:37;;;;;;;8.40;6.28;;;;;;;;;;6155908;23;20025;-91
2023/12/06 02:45:04;;;;;;;7.30;5.55;;;;;;;;;;6154596;23;20020;-91
2023/12/06 02:47:32;;;;;;;7.35;6.05;;;;;;;;;;6155887;23;20025;-92
2023/12/06 02:49:59;;;;;;;9.25;7.32;;;;;;;;;;6155869;23;20090;-91
2023/12/06 02:52:26;;;;;;;6.80;5.90;;;;;;;;;;6155571;23;20029;-91
2023/12/06 02:54:53;;;;;;;8.35;6.43;;;;;;;;;;6155830;23;20082;-91
2023/12/06 02:57:20;;;;;;;7.57;6.18;;;;;;;;;;6155397;23;20031;-92
2023/12/06 02:59:48;;;;;;;9.00;7.25;;;;;;;;;;6155616;23;20021;-91
2023/12/06 03:02:15;;;;;;;8.27;7.10;;;;;;;;;;6154846;23;20454;-91
2023/12/06 03:04:42;;;;;;;8.48;6.70;;;;;;;;;;6181127;23;20032;-91
2023/12/06 03:07:10;;;;;;;12.45;7.20;;;;;;;;;;6154782;23;20100;-91
2023/12/06 03:09:37;;;;;;;6.80;5.85;;;;;;;;;;6180980;23;20346;-91
2023/12/06 03:12:06;;;;;;;8.80;6.25;;;;;;;;;;6154492;23;20067;-91
2023/12/06 03:14:34;;;;;;;9.43;6.35;;;;;;;;;;6155030;23;20393;-91
2023/12/06 03:17:01;;;;;;;5.85;5.13;;;;;;;;;;6154799;23;20036;-91
2023/12/06 03:19:28;;;;;;;7.03;6.03;;;;;;;;;;6154964;23;20032;-91
2023/12/06 03:21:56;;;;;;;5.85;4.95;;;;;;;;;;6154401;23;20093;-91
2023/12/06 03:24:23;;;;;;;5.65;5.13;;;;;;;;;;6154650;22;20048;-91
2023/12/06 03:26:50;;;;;;;6.15;5.55;;;;;;;;;;6156048;23;20047;-91
2023/12/06 03:29:17;;;;;;;7.00;5.43;;;;;;;;;;6182254;23;20029;-91
2023/12/06 03:31:44;;;;;;;7.25;5.32;;;;;;;;;;6181688;23;20357;-90
2023/12/06 03:34:12;;;;;;;6.82;5.28;;;;;;;;;;6182355;23;20053;-91
2023/12/06 03:36:39;;;;;;;6.15;5.20;;;;;;;;;;6181474;23;20028;-91
2023/12/06 03:39:06;;;;;;;5.95;5.07;;;;;;;;;;6156270;23;20103;-91
2023/12/06 03:41:34;;;;;;;8.32;5.80;;;;;;;;;;6181910;23;20383;-91
2023/12/06 03:44:01;;;;;;;15.32;7.82;;;;;;;;;;6156591;23;20025;-91
2023/12/06 03:46:30;;;;;;;22.02;10.18;;;;;;;;;;6182101;23;20067;-91
2023/12/06 03:48:57;;;;;;;15.55;6.78;;;;;;;;;;6156767;23;20032;-91
2023/12/06 03:51:24;;;;;;;6.65;4.03;;;;;;;;;;6182237;23;20119;-92
2023/12/06 03:53:52;;;;;;;4.65;3.95;;;;;;;;;;6156005;23;20039;-91
2023/12/06 03:56:19;;;;;;;4.75;3.65;;;;;;;;;;6155752;23;20029;-91
2023/12/06 03:58:46;;;;;;;4.15;3.40;;;;;;;;;;6156010;23;20021;-91
2023/12/06 04:01:13;;;;;;;3.35;2.80;;;;;;;;;;6181820;23;20331;-91
2023/12/06 04:03:41;;;;;;;3.50;3.20;;;;;;;;;;6181853;23;20029;-91
2023/12/06 04:06:08;;;;;;;3.33;3.05;;;;;;;;;;6155923;23;20446;-91
2023/12/06 04:08:36;;;;;;;2.38;2.28;;;;;;;;;;6156186;23;20053;-91
2023/12/06 04:11:04;;;;;;;2.95;2.67;;;;;;;;;;6156215;23;20083;-91
2023/12/06 04:13:31;;;;;;;2.53;2.42;;;;;;;;;;6155955;23;20538;-91
2023/12/06 04:15:59;;;;;;;2.65;2.45;;;;;;;;;;6156196;23;20021;-91
2023/12/06 04:18:26;;;;;;;2.72;2.58;;;;;;;;;;6156064;23;20021;-91
2023/12/06 04:20:53;;;;;;;3.70;2.92;;;;;;;;;;6155644;23;20020;-91
2023/12/06 04:23:21;;;;;;;2.95;2.42;;;;;;;;;;6181763;23;20029;-91
2023/12/06 04:25:48;;;;;;;3.20;3.00;;;;;;;;;;6156166;23;20024;-91
2023/12/06 04:28:16;;;;;;;3.33;3.03;;;;;;;;;;6156484;23;20025;-91
2023/12/06 04:30:43;;;;;;;4.20;3.13;;;;;;;;;;6182726;23;20098;-92
2023/12/06 04:33:10;;;;;;;5.07;3.10;;;;;;;;;;6156633;23;20025;-91
2023/12/06 04:35:38;;;;;;;3.80;2.92;;;;;;;;;;6156150;23;20024;-92
2023/12/06 04:38:05;;;;;;;5.20;3.13;;;;;;;;;;6156046;23;20086;-91
2023/12/06 04:40:32;;;;;;;3.97;2.85;;;;;;;;;;6155855;23;20442;-91
2023/12/06 04:42:59;;;;;;;2.85;2.65;;;;;;;;;;6155808;23;20324;-92
2023/12/06 04:45:26;;;;;;;3.95;3.60;;;;;;;;;;6155904;23;20013;-92
2023/12/06 04:47:55;;;;;;;3.00;2.80;;;;;;;;;;6155633;23;20032;-91
2023/12/06 04:50:22;;;;;;;3.40;2.47;;;;;;;;;;6155394;23;20024;-91
2023/12/06 04:52:50;;;;;;;2.80;2.60;;;;;;;;;;6155904;23;20021;-91
2023/12/06 04:55:17;;;;;;;3.90;2.90;;;;;;;;;;6155285;23;20018;-91
2023/12/06 04:57:44;;;;;;;3.40;3.10;;;;;;;;;;6156134;23;20442;-91
2023/12/06 05:00:12;;;;;;;2.70;2.47;;;;;;;;;;6155442;23;20096;-92
2023/12/06 05:02:39;;;;;;;5.10;3.17;;;;;;;;;;6155135;23;20353;-91
2023/12/06 05:05:07;;;;;;;11.00;3.03;;;;;;;;;;6155511;23;20021;-92
2023/12/06 05:07:34;;;;;;;4.03;2.80;;;;;;;;;;6155763;23;20028;-92
2023/12/06 05:10:02;;;;;;;2.72;2.60;;;;;;;;;;6155683;23;20070;-92
2023/12/06 05:12:29;;;;;;;3.13;2.70;;;;;;;;;;6155475;23;20047;-92
2023/12/06 05:14:57;;;;;;;3.58;2.33;;;;;;;;;;6155419;23;20346;-91
2023/12/06 05:17:25;;;;;;;3.10;2.80;;;;;;;;;;6155754;23;20017;-91
2023/12/06 05:19:52;;;;;;;7.45;2.88;;;;;;;;;;6155862;23;20017;-91
2023/12/06 05:22:19;;;;;;;4.18;2.55;;;;;;;;;;6155650;23;20017;-90
2023/12/06 05:24:47;;;;;;;4.90;2.53;;;;;;;;;;6155342;23;20405;-92
2023/12/06 05:27:14;;;;;;;2.38;2.17;;;;;;;;;;6155877;23;20474;-92
2023/12/06 05:29:41;;;;;;;4.72;3.42;;;;;;;;;;6155373;23;20047;-91
2023/12/06 05:32:09;;;;;;;2.80;2.60;;;;;;;;;;6155633;23;20017;-92
2023/12/06 05:34:36;;;;;;;13.10;6.68;;;;;;;;;;6155219;23;20028;-92
2023/12/06 05:37:03;;;;;;;5.47;3.50;;;;;;;;;;6155198;23;20097;-90
2023/12/06 05:39:31;;;;;;;2.75;2.45;;;;;;;;;;6155678;23;20028;-92
2023/12/06 05:41:58;;;;;;;2.40;2.03;;;;;;;;;;6155364;23;20013;-92
2023/12/06 05:44:25;;;;;;;2.90;2.70;;;;;;;;;;6155242;23;20028;-91
2023/12/06 05:46:53;;;;;;;2.47;2.30;;;;;;;;;;6155295;23;20017;-91
2023/12/06 05:49:20;;;;;;;2.42;2.33;;;;;;;;;;6155295;23;20074;-92
2023/12/06 05:51:48;;;;;;;4.95;2.40;;;;;;;;;;6155498;23;20017;-92
2023/12/06 05:54:15;;;;;;;3.28;2.85;;;;;;;;;;6155331;23;20025;-92
2023/12/06 05:56:42;;;;;;;4.15;3.28;;;;;;;;;;6155432;23;20032;-92
2023/12/06 05:59:09;;;;;;;5.03;2.97;;;;;;;;;;6155394;23;20066;-92
2023/12/06 06:01:36;;;;;;;4.43;3.53;;;;;;;;;;6155632;23;20110;-91
2023/12/06 06:04:04;;;;;;;4.72;2.83;;;;;;;;;;6155395;23;20017;-92
2023/12/06 06:06:35;;;;;;;3.28;3.00;;;;;;;;;;6155342;23;20036;-91
2023/12/06 06:09:02;;;;;;;5.03;3.13;;;;;;;;;;6155372;23;20025;-92
2023/12/06 06:11:30;;;;;;;6.45;3.90;;;;;;;;;;6155117;23;20017;-92
2023/12/06 06:13:57;;;;;;;3.28;3.08;;;;;;;;;;6155756;23;20021;-92
2023/12/06 06:16:25;;;;;;;26.13;13.02;;;;;;;;;;6155319;23;20020;-91
2023/12/06 06:18:52;;;;;;;12.02;7.70;;;;;;;;;;6155743;23;20021;-92
2023/12/06 06:21:19;;;;;;;7.22;4.32;;;;;;;;;;6155690;23;20023;-92
2023/12/06 06:23:46;;;;;;;14.25;9.38;;;;;;;;;;6155471;23;20079;-92
2023/12/06 06:26:14;;;;;;;23.85;14.52;;;;;;;;;;6155064;23;20082;-92
2023/12/06 06:28:41;;;;;;;8.27;6.00;;;;;;;;;;6155897;23;20021;-92
2023/12/06 06:31:09;;;;;;;3.97;3.53;;;;;;;;;;6155474;23;20032;-92
2023/12/06 06:33:37;;;;;;;12.70;6.40;;;;;;;;;;6155790;23;20048;-92
2023/12/06 06:36:05;;;;;;;6.55;3.72;;;;;;;;;;6155485;23;20013;-92
2023/12/06 06:38:33;;;;;;;4.18;3.30;;;;;;;;;;6155417;23;20032;-92
2023/12/06 06:41:00;;;;;;;9.65;3.50;;;;;;;;;;6155327;23;20074;-92
2023/12/06 06:43:27;;;;;;;4.97;2.97;;;;;;;;;;6155412;23;20017;-92
2023/12/06 06:45:55;;;;;;;3.35;2.30;;;;;;;;;;6155293;23;20017;-91
2023/12/06 06:48:23;;;;;;;9.10;2.55;;;;;;;;;;6155527;23;20021;-92
2023/12/06 06:50:51;;;;;;;2.65;2.40;;;;;;;;;;6155254;23;20017;-91
2023/12/06 06:53:19;;;;;;;3.95;2.15;;;;;;;;;;6154997;23;20469;-91
2023/12/06 06:55:46;;;;;;;2.83;2.17;;;;;;;;;;6155275;23;20071;-92
2023/12/06 06:58:13;;;;;;;1.92;1.83;;;;;;;;;;6155053;23;20032;-90
2023/12/06 07:00:41;;;;;;;2.95;2.53;;;;;;;;;;6156627;23;20014;-92
2023/12/06 07:03:08;;;;;;;5.78;1.73;;;;;;;;;;6156556;23;20024;-91
2023/12/06 07:05:37;;;;;;;3.63;1.60;;;;;;;;;;6156789;23;20021;-92
2023/12/06 07:08:05;;;;;;;2.40;1.30;;;;;;;;;;6156290;23;20017;-91
2023/12/06 07:10:34;;;;;;;5.88;2.30;;;;;;;;;;6156598;23;20342;-91
2023/12/06 07:13:01;;;;;;;3.47;2.10;;;;;;;;;;6156645;23;20051;-92
2023/12/06 07:15:29;;;;;;;8.80;3.20;;;;;;;;;;6156160;23;20072;-92
2023/12/06 07:17:56;;;;;;;3.72;2.88;;;;;;;;;;6156221;23;20040;-92
2023/12/06 07:20:26;;;;;;;4.20;2.42;;;;;;;;;;6156389;23;20035;-92
2023/12/06 07:23:09;;;;;;;4.97;2.42;;;;;;;;;;6159755;23;20024;-92
2023/12/06 07:25:36;;;;;;;7.82;4.00;;;;;;;;;;6156444;23;20381;-92
2023/12/06 07:28:04;;;;;;;6.50;4.03;;;;;;;;;;6156309;23;20025;-92
2023/12/06 07:30:31;;;;;;;7.65;4.15;;;;;;;;;;6156501;23;20017;-92
2023/12/06 07:32:59;;;;;;;5.10;3.67;;;;;;;;;;6156783;23;20025;-92
2023/12/06 07:35:27;;;;;;;8.18;3.53;;;;;;;;;;6157258;23;20044;-92
2023/12/06 07:37:54;;;;;;;2.63;2.42;;;;;;;;;;6158081;23;20028;-92
2023/12/06 07:40:21;;;;;;;3.20;2.90;;;;;;;;;;6156607;23;20342;-92
2023/12/06 07:42:49;;;;;;;5.72;3.38;;;;;;;;;;6156162;23;20076;-92
2023/12/06 07:45:16;;;;;;;8.80;5.05;;;;;;;;;;6155781;23;20450;-92
2023/12/06 07:47:43;;;;;;;6.15;4.63;;;;;;;;;;6156419;23;20021;-93
2023/12/06 07:50:11;;;;;;;4.65;2.80;;;;;;;;;;6156594;23;20361;-92
2023/12/06 07:52:39;;;;;;;5.15;2.90;;;;;;;;;;6156665;23;20350;-92
2023/12/06 07:55:07;;;;;;;5.22;4.72;;;;;;;;;;6155870;23;20096;-92
2023/12/06 07:57:34;;;;;;;3.72;3.40;;;;;;;;;;6155836;23;20047;-92
2023/12/06 08:00:04;;;;;;;6.28;5.60;;;;;;;;;;6156202;23;20020;-92
2023/12/06 08:02:32;;;;;;;6.53;5.32;;;;;;;;;;6156421;23;20025;-92
2023/12/06 08:05:02;;;;;;;3.42;3.03;;;;;;;;;;6156625;23;20021;-92
2023/12/06 08:07:30;;;;;;;4.53;4.05;;;;;;;;;;6156815;23;20033;-92
2023/12/06 08:09:57;;;;;;;4.68;4.28;;;;;;;;;;6156037;23;20017;-92
2023/12/06 08:12:25;;;;;;;5.22;3.63;;;;;;;;;;6155539;23;20021;-92
2023/12/06 08:14:53;;;;;;;7.15;6.50;;;;;;;;;;6156422;23;20342;-91
2023/12/06 08:17:21;;;;;;;5.45;4.88;;;;;;;;;;6156851;23;20515;-92
2023/12/06 08:19:49;;;;;;;6.35;5.05;;;;;;;;;;6156580;23;20017;-92
2023/12/06 08:22:16;;;;;;;1.77;1.67;;;;;;;;;;6156289;23;20071;-92
2023/12/06 08:24:43;;;;;;;4.45;4.05;;;;;;;;;;6155681;23;20455;-91
2023/12/06 08:27:11;;;;;;;4.25;3.85;;;;;;;;;;6156153;23;20481;-92
2023/12/06 08:29:39;;;;;;;4.30;3.67;;;;;;;;;;6156394;23;20024;-92
2023/12/06 08:32:06;;;;;;;4.88;3.22;;;;;;;;;;6156316;23;20017;-92
2023/12/06 08:34:33;;;;;;;2.38;2.28;;;;;;;;;;6156354;23;20105;-92
2023/12/06 08:37:02;;;;;;;5.68;4.30;;;;;;;;;;6155904;23;20017;-92
2023/12/06 08:39:29;;;;;;;6.22;5.63;;;;;;;;;;6155895;23;20027;-92
2023/12/06 08:41:56;;;;;;;6.80;5.60;;;;;;;;;;6156093;23;20013;-92
2023/12/06 08:44:23;;;;;;;5.20;4.22;;;;;;;;;;6155799;23;20021;-91
2023/12/06 08:46:51;;;;;;;5.05;4.57;;;;;;;;;;6155885;23;20017;-92
2023/12/06 08:49:18;;;;;;;4.28;3.33;;;;;;;;;;6156015;23;20017;-92
2023/12/06 08:51:45;;;;;;;4.95;4.47;;;;;;;;;;6155990;23;20485;-92
2023/12/06 08:54:13;;;;;;;4.30;3.90;;;;;;;;;;6155707;23;20358;-92
2023/12/06 08:56:40;;;;;;;2.97;2.25;;;;;;;;;;6155919;23;20082;-92
2023/12/06 08:59:08;;;;;;;2.42;2.10;;;;;;;;;;6156137;23;20029;-90
2023/12/06 09:01:35;;;;;;;2.70;2.55;;;;;;;;;;6156690;23;20012;-92
2023/12/06 09:04:03;;;;;;;7.97;4.53;;;;;;;;;;6156451;23;20047;-91
2023/12/06 09:06:30;;;;;;;17.75;12.65;;;;;;;;;;6155887;23;20013;-91
2023/12/06 09:08:57;;;;;;;11.35;8.48;;;;;;;;;;6156332;23;20458;-92
2023/12/06 09:11:25;;;;;;;7.80;6.68;;;;;;;;;;6156400;23;20017;-91
2023/12/06 09:13:52;;;;;;;9.60;7.03;;;;;;;;;;6156436;23;20332;-92
2023/12/06 09:16:19;;;;;;;8.25;5.32;;;;;;;;;;6155919;23;20017;-91
2023/12/06 09:18:46;;;;;;;4.88;4.05;;;;;;;;;;6155904;23;20024;-91
2023/12/06 09:21:14;;;;;;;3.63;2.67;;;;;;;;;;6156019;23;20021;-92
2023/12/06 09:23:42;;;;;;;1.50;1.50;;;;;;;;;;6156421;23;20048;-91
2023/12/06 09:26:09;;;;;;;2.03;1.92;;;;;;;;;;6156319;23;20372;-91
2023/12/06 09:28:38;;;;;;;1.73;1.60;;;;;;;;;;6156896;23;20021;-91
2023/12/06 09:31:06;;;;;;;1.10;1.10;;;;;;;;;;6155958;23;20028;-92
2023/12/06 09:33:33;;;;;;;1.58;1.48;;;;;;;;;;6155989;23;20514;-90
2023/12/06 09:36:01;;;;;;;1.40;1.40;;;;;;;;;;6155737;23;20092;-91
2023/12/06 09:38:28;;;;;;;4.25;1.65;;;;;;;;;;6156233;23;20090;-91
2023/12/06 09:40:55;;;;;;;1.75;1.63;;;;;;;;;;6155953;23;20449;-91
2023/12/06 09:43:22;;;;;;;1.30;1.30;;;;;;;;;;6155966;23;20013;-91
2023/12/06 09:45:50;;;;;;;2.78;1.60;;;;;;;;;;6155566;23;20021;-91
2023/12/06 09:48:17;;;;;;;1.45;1.45;;;;;;;;;;6155571;23;20350;-91
2023/12/06 09:50:45;;;;;;;1.85;1.75;;;;;;;;;;6156103;23;20024;-90
2023/12/06 09:53:16;;;;;;;1.75;1.65;;;;;;;;;;6156525;23;20017;-90
2023/12/06 09:55:43;;;;;;;1.80;1.80;;;;;;;;;;6155790;23;20024;-91
2023/12/06 09:58:11;;;;;;;1.90;1.80;;;;;;;;;;6156062;23;20112;-92
2023/12/06 10:00:38;;;;;;;2.03;1.88;;;;;;;;;;6155907;23;20032;-90
2023/12/06 10:03:06;;;;;;;1.92;1.83;;;;;;;;;;6155978;23;20017;-90
2023/12/06 10:05:35;;;;;;;2.17;1.98;;;;;;;;;;6156003;23;20021;-90
2023/12/06 10:08:03;;;;;;;1.70;1.60;;;;;;;;;;6155492;23;20021;-91
2023/12/06 10:10:30;;;;;;;3.67;1.63;;;;;;;;;;6155753;23;20021;-90
2023/12/06 10:12:57;;;;;;;1.50;1.50;;;;;;;;;;6155562;23;20021;-90
2023/12/06 10:15:25;;;;;;;1.92;1.90;;;;;;;;;;6155032;23;20086;-90
2023/12/06 10:17:52;;;;;;;2.20;2.10;;;;;;;;;;6155477;23;20099;-90
2023/12/06 10:20:22;;;;;;;1.90;1.80;;;;;;;;;;6155489;23;20238;-89
2023/12/06 10:22:50;;;;;;;2.10;2.00;;;;;;;;;;6155540;23;20052;-89
2023/12/06 10:25:17;;;;;;;2.30;2.10;;;;;;;;;;6155292;23;20044;-90
2023/12/06 10:27:45;;;;;;;2.30;2.10;;;;;;;;;;6155182;23;20021;-89
2023/12/06 10:30:20;;;;;;;2.42;2.25;;;;;;;;;;6155432;23;20165;-89
2023/12/06 10:32:48;;;;;;;2.67;2.47;;;;;;;;;;6155230;23;20024;-90
2023/12/06 10:35:16;;;;;;;2.13;1.92;;;;;;;;;;6156337;23;20332;-89
2023/12/06 10:37:43;;;;;;;2.22;2.13;;;;;;;;;;6156465;23;20442;-89
2023/12/06 10:40:11;;;;;;;2.65;2.45;;;;;;;;;;6156754;23;20025;-89
2023/12/06 10:42:40;;;;;;;2.30;2.20;;;;;;;;;;6157620;23;20023;-88
2023/12/06 10:45:08;;;;;;;1.98;1.88;;;;;;;;;;6157964;23;20025;-88
2023/12/06 10:47:35;;;;;;;3.42;2.33;;;;;;;;;;6158384;23;20017;-89
2023/12/06 10:50:03;;;;;;;1.90;1.80;;;;;;;;;;6156479;23;20028;-89
2023/12/06 10:52:31;;;;;;;1.90;1.80;;;;;;;;;;6155786;23;20017;-89
2023/12/06 10:54:59;;;;;;;1.63;1.60;;;;;;;;;;6155781;23;20025;-89
2023/12/06 10:57:26;;;;;;;2.10;2.00;;;;;;;;;;6156201;23;20017;-89
2023/12/06 10:59:57;;;;;;;2.00;1.90;;;;;;;;;;6156193;23;20048;-89
2023/12/06 11:02:26;;;;;;;3.00;2.72;;;;;;;;;;6156550;23;20027;-90
2023/12/06 11:04:57;;;;;;;2.20;2.10;;;;;;;;;;6155891;23;20032;-89
2023/12/06 11:07:34;;;;;;;1.63;1.63;;;;;;;;;;6156174;23;20021;-89
2023/12/06 11:10:08;;;;;;;1.48;1.48;;;;;;;;;;6156274;23;20446;-89
2023/12/06 11:12:53;;;;;;;1.60;1.50;;;;;;;;;;6156701;23;20017;-89
2023/12/06 11:15:28;;;;;;;1.50;1.40;;;;;;;;;;6156002;23;20028;-88
2023/12/06 11:18:09;;;;;;;1.30;1.30;;;;;;;;;;6155760;23;20357;-89
2023/12/06 11:20:38;;;;;;;1.63;1.52;;;;;;;;;;6156281;23;20027;-89
2023/12/06 11:23:05;;;;;;;1.70;1.60;;;;;;;;;;6155921;23;20029;-89
2023/12/06 11:25:33;;;;;;;1.70;1.60;;;;;;;;;;6155820;23;20450;-87
2023/12/06 11:28:01;;;;;;;1.20;1.20;;;;;;;;;;6156523;23;20052;-89
2023/12/06 11:30:28;;;;;;;1.00;1.00;;;;;;;;;;6156182;23;20031;-89
2023/12/06 11:32:58;;;;;;;0.80;0.80;;;;;;;;;;6182429;23;20025;-90
2023/12/06 11:35:26;;;;;;;0.93;0.90;;;;;;;;;;6181667;23;20046;-88
2023/12/06 11:37:54;;;;;;;1.13;1.02;;;;;;;;;;6156869;23;20025;-89
2023/12/06 11:40:22;;;;;;;0.77;0.77;;;;;;;;;;6182514;23;20036;-89
2023/12/06 11:42:56;;;;;;;0.80;0.80;;;;;;;;;;6156697;23;20414;-89
2023/12/06 11:45:27;;;;;;;1.15;1.15;;;;;;;;;;6156182;23;20334;-89
2023/12/06 11:47:55;;;;;;;0.90;0.90;;;;;;;;;;6156963;23;20050;-89
2023/12/06 11:50:23;;;;;;;1.25;0.85;;;;;;;;;;6156508;23;20082;-89
2023/12/06 11:52:53;;;;;;;0.80;0.80;;;;;;;;;;6150457;23;20021;-88
2023/12/06 11:55:21;;;;;;;0.77;0.77;;;;;;;;;;6150357;23;20075;-88
2023/12/06 11:58:01;;;;;;;0.80;0.80;;;;;;;;;;6151643;23;20090;-89
2023/12/06 12:00:32;;;;;;;1.00;0.90;;;;;;;;;;6151625;23;20053;-89
2023/12/06 12:03:00;;;;;;;0.88;0.88;;;;;;;;;;6151636;23;20018;-89
2023/12/06 12:05:27;;;;;;;0.70;0.70;;;;;;;;;;6152307;23;20021;-89
2023/12/06 12:07:55;;;;;;;0.93;0.93;;;;;;;;;;6151428;23;20026;-89
2023/12/06 12:10:23;;;;;;;0.77;0.77;;;;;;;;;;6151057;23;20095;-89
2023/12/06 12:12:50;;;;;;;1.00;0.80;;;;;;;;;;6151551;23;20025;-89
2023/12/06 12:15:17;;;;;;;1.00;1.00;;;;;;;;;;6151293;23;20022;-89
2023/12/06 12:17:45;;;;;;;0.70;0.70;;;;;;;;;;6151405;23;20028;-89
2023/12/06 12:20:13;;;;;;;0.90;0.90;;;;;;;;;;6152236;23;20108;-89
2023/12/06 12:22:48;;;;;;;0.90;0.90;;;;;;;;;;6151340;23;20040;-89
2023/12/06 12:25:16;;;;;;;1.80;1.33;;;;;;;;;;6150287;23;20025;-89
2023/12/06 12:27:48;;;;;;;2.05;1.90;;;;;;;;;;6150941;23;20075;-89
2023/12/06 12:30:15;;;;;;;1.60;1.50;;;;;;;;;;6150957;23;20493;-89
2023/12/06 12:32:45;;;;;;;1.10;1.10;;;;;;;;;;6150679;23;20014;-89
2023/12/06 12:35:12;;;;;;;1.77;1.40;;;;;;;;;;6151659;23;20446;-89
2023/12/06 12:37:40;;;;;;;1.27;1.27;;;;;;;;;;6151569;23;20386;-89
2023/12/06 12:40:09;;;;;;;1.40;1.30;;;;;;;;;;6151436;23;20022;-87
2023/12/06 12:42:40;;;;;;;1.00;1.00;;;;;;;;;;6150845;23;20068;-89
2023/12/06 12:45:08;;;;;;;1.20;1.20;;;;;;;;;;6150519;23;20022;-89
2023/12/06 12:47:37;;;;;;;2.55;2.33;;;;;;;;;;6150856;23;20505;-89
2023/12/06 12:50:06;;;;;;;2.28;2.13;;;;;;;;;;6152599;23;20206;-89
2023/12/06 12:52:34;;;;;;;3.25;2.42;;;;;;;;;;6151127;23;20029;-89
2023/12/06 12:55:05;;;;;;;2.15;1.95;;;;;;;;;;6151117;23;20022;-88
2023/12/06 12:57:36;;;;;;;2.60;2.15;;;;;;;;;;6150803;23;20018;-89
2023/12/06 13:00:05;;;;;;;2.78;2.13;;;;;;;;;;6151074;23;20034;-89
2023/12/06 13:02:33;;;;;;;1.55;1.45;;;;;;;;;;6151730;23;20057;-89
2023/12/06 13:05:04;;;;;;;2.35;1.77;;;;;;;;;;6151238;23;20025;-89
2023/12/06 13:07:34;;;;;;;8.20;3.15;;;;;;;;;;6151542;23;20029;-89
2023/12/06 13:10:08;;;;;;;4.80;2.63;;;;;;;;;;6151355;23;20056;-88
2023/12/06 13:12:36;;;;;;;5.97;4.57;;;;;;;;;;6151520;23;20031;-89
2023/12/06 13:15:03;;;;;;;3.83;3.40;;;;;;;;;;6152383;23;20028;-89
2023/12/06 13:17:31;;;;;;;3.88;3.28;;;;;;;;;;6151092;23;20021;-89
2023/12/06 13:19:58;;;;;;;4.97;3.45;;;;;;;;;;6150932;23;20048;-89
2023/12/06 13:22:26;;;;;;;2.20;2.00;;;;;;;;;;6150718;23;20069;-89
2023/12/06 13:24:53;;;;;;;2.08;1.77;;;;;;;;;;6150304;23;20361;-89
2023/12/06 13:27:21;;;;;;;3.22;2.55;;;;;;;;;;6150987;23;20470;-89
2023/12/06 13:29:49;;;;;;;6.60;3.50;;;;;;;;;;6151221;23;20389;-89
2023/12/06 13:32:16;;;;;;;5.47;4.35;;;;;;;;;;6150671;23;20022;-89
2023/12/06 13:34:46;;;;;;;3.00;2.70;;;;;;;;;;6150646;23;20017;-88
2023/12/06 13:37:14;;;;;;;2.85;2.65;;;;;;;;;;6150420;23;20037;-89
2023/12/06 13:39:42;;;;;;;2.55;2.45;;;;;;;;;;6150464;23;20013;-88
2023/12/06 13:42:10;;;;;;;4.53;3.80;;;;;;;;;;6150523;23;20021;-89
2023/12/06 13:44:38;;;;;;;5.07;3.05;;;;;;;;;;6150357;23;20024;-89
2023/12/06 13:47:05;;;;;;;4.47;4.07;;;;;;;;;;6150249;23;20078;-88
2023/12/06 13:49:32;;;;;;;3.17;2.80;;;;;;;;;;6150593;23;20466;-89
2023/12/06 13:52:00;;;;;;;5.25;2.40;;;;;;;;;;6150195;23;20025;-89
2023/12/06 13:54:27;;;;;;;3.03;2.50;;;;;;;;;;6152515;23;20041;-89
2023/12/06 13:56:55;;;;;;;3.70;2.30;;;;;;;;;;6152897;23;20091;-88
2023/12/06 13:59:23;;;;;;;3.05;2.70;;;;;;;;;;6127067;23;20021;-88
2023/12/06 14:01:50;;;;;;;3.38;1.90;;;;;;;;;;6126528;23;20029;-88
2023/12/06 14:04:18;;;;;;;2.20;2.08;;;;;;;;;;6126163;23;20025;-89
2023/12/06 14:06:46;;;;;;;2.53;2.30;;;;;;;;;;6126205;23;20389;-89
2023/12/06 14:09:13;;;;;;;2.03;1.92;;;;;;;;;;6126377;23;20045;-89
2023/12/06 14:11:42;;;;;;;4.05;2.80;;;;;;;;;;6152285;23;20032;-88
2023/12/06 14:14:09;;;;;;;3.47;3.22;;;;;;;;;;6125963;23;20084;-88
2023/12/06 14:16:37;;;;;;;3.38;3.08;;;;;;;;;;6125862;23;20467;-88
2023/12/06 14:19:04;;;;;;;4.28;2.83;;;;;;;;;;6126301;23;20429;-88
2023/12/06 14:21:31;;;;;;;1.90;1.80;;;;;;;;;;6126447;23;20044;-88
2023/12/06 14:23:59;;;;;;;3.22;2.10;;;;;;;;;;6126578;23;20037;-88
2023/12/06 14:26:26;;;;;;;5.00;2.20;;;;;;;;;;6125887;23;20417;-88
2023/12/06 14:28:53;;;;;;;3.95;3.55;;;;;;;;;;6126029;23;20025;-88
2023/12/06 14:31:20;;;;;;;5.97;3.63;;;;;;;;;;6125690;23;20029;-89
2023/12/06 14:33:48;;;;;;;3.38;2.83;;;;;;;;;;6125906;23;20022;-89
2023/12/06 14:36:15;;;;;;;4.30;3.50;;;;;;;;;;6125350;23;20025;-88
2023/12/06 14:38:42;;;;;;;1.55;1.35;;;;;;;;;;6125820;23;20022;-88
2023/12/06 14:41:10;;;;;;;1.08;0.98;;;;;;;;;;6125378;23;20033;-88
2023/12/06 14:43:37;;;;;;;2.28;1.65;;;;;;;;;;6126139;23;20651;-88